Time;durP1;ratioP1;P1;durP2;ratioP2;P2;SDS_P1;SDS_P2;PMS_P1;PMS_P2;Temp;Humidity;BMP_temperature;BMP_pressure;BME280_temperature;BME280_humidity;BME280_pressure;Samples;Min_cycle;Max_cycle;Signal;HPM_P1;HPM_P2
2021/04/08 00:01:49;;;;;;;;;;;0.40;76.30;;;;;;5026422;28;20398;-67
2021/04/08 00:04:14;;;;;;;4.35;2.17;;;0.40;76.50;;;;;;5026488;28;19913;-67
2021/04/08 00:06:40;;;;;;;;;;;0.40;76.40;;;;;;5026855;28;20033;-66
2021/04/08 00:09:06;;;;;;;5.05;2.30;;;0.40;76.30;;;;;;5026109;28;19928;-67
2021/04/08 00:11:31;;;;;;;;;;;0.40;76.10;;;;;;5026686;28;20067;-67
2021/04/08 00:13:57;;;;;;;5.72;2.58;;;0.40;76.10;;;;;;5025068;28;20269;-67
2021/04/08 00:16:23;;;;;;;;;;;0.40;76.00;;;;;;5026415;28;20383;-67
2021/04/08 00:18:48;;;;;;;4.20;2.25;;;0.30;75.80;;;;;;5025745;28;19959;-67
2021/04/08 00:21:14;;;;;;;;;;;0.30;75.90;;;;;;5026738;28;20418;-67
2021/04/08 00:23:40;;;;;;;5.80;2.67;;;0.30;76.10;;;;;;5025724;28;19916;-66
2021/04/08 00:26:05;;;;;;;;;;;0.30;76.10;;;;;;5026760;28;20026;-67
2021/04/08 00:28:31;;;;;;;10.88;3.53;;;0.20;76.10;;;;;;5026016;28;19909;-67
2021/04/08 00:30:57;;;;;;;;;;;0.20;76.20;;;;;;5026370;28;20564;-67
2021/04/08 00:33:22;;;;;;;9.02;3.03;;;0.20;76.20;;;;;;5026354;28;19940;-66
2021/04/08 00:35:48;;;;;;;;;;;0.20;76.20;;;;;;5026151;28;20112;-67
2021/04/08 00:38:14;;;;;;;9.23;4.68;;;0.20;76.20;;;;;;5025607;28;20007;-65
2021/04/08 00:40:40;;;;;;;;;;;0.20;76.20;;;;;;5026206;28;20108;-67
2021/04/08 00:43:06;;;;;;;6.32;2.95;;;0.20;76.20;;;;;;5026101;28;19908;-67
2021/04/08 00:45:31;;;;;;;;;;;0.10;75.90;;;;;;5025844;28;20030;-66
2021/04/08 00:47:57;;;;;;;5.10;2.28;;;0.10;75.80;;;;;;5025964;28;19928;-67
2021/04/08 00:50:23;;;;;;;;;;;0.00;75.50;;;;;;5026043;28;20457;-66
2021/04/08 00:52:58;;;;;;;5.10;2.58;;;-0.10;75.60;;;;;;5024172;28;19955;-66
2021/04/08 00:55:34;;;;;;;5.78;1.92;;;-0.10;75.50;;;;;;5025987;28;20030;-66
2021/04/08 00:58:04;;;;;;;5.13;1.80;;;-0.20;75.60;;;;;;5025935;28;20044;-66
2021/04/08 01:00:30;;;;;;;5.75;2.05;;;-0.20;75.60;;;;;;5025368;28;20041;-66
2021/04/08 01:02:56;;;;;;;5.07;2.28;;;-0.20;75.80;;;;;;5028624;28;20033;-66
2021/04/08 01:05:22;;;;;;;;;;;-0.30;75.80;;;;;;5029769;28;20552;-66
2021/04/08 01:07:49;;;;;;;5.90;2.40;;;-0.30;75.90;;;;;;5029054;28;19971;-66
2021/04/08 01:10:16;;;;;;;5.10;2.30;;;-0.40;75.90;;;;;;5029123;28;20079;-66
2021/04/08 01:12:41;;;;;;;4.68;2.50;;;-0.40;76.10;;;;;;5028468;28;20029;-66
2021/04/08 01:15:07;;;;;;;;;;;-0.40;76.40;;;;;;5029680;28;20026;-66
2021/04/08 01:17:48;;;;;;;4.07;1.88;;;-0.50;76.60;;;;;;5029382;28;20626;-66
2021/04/08 01:20:38;;;;;;;4.00;1.90;;;-0.50;76.90;;;;;;5029017;28;20073;-66
2021/04/08 01:23:33;;;;;;;3.50;2.08;;;-0.50;77.20;;;;;;5028682;28;20405;-66
2021/04/08 01:26:18;;;;;;;6.63;2.50;;;-0.50;77.30;;;;;;5018626;28;20056;-66
2021/04/08 01:29:01;;;;;;;4.90;2.42;;;-0.50;78.00;;;;;;5029194;28;20108;-66
2021/04/08 01:31:26;;;;;;;5.53;2.85;;;-0.60;78.30;;;;;;5029221;28;20116;-65
2021/04/08 01:33:55;;;;;;;;;;;-0.60;79.00;;;;;;5029487;28;20108;-66
2021/04/08 01:36:25;;;;;;;5.00;2.30;;;-0.70;79.00;;;;;;5028673;28;19909;-71
2021/04/08 01:39:09;;;;;;;8.52;2.67;;;-0.70;79.10;;;;;;5027468;28;20068;-66
2021/04/08 01:41:37;;;;;;;8.55;2.88;;;-0.80;79.20;;;;;;5028834;28;20025;-66
2021/04/08 01:44:05;;;;;;;5.43;2.70;;;-0.80;79.00;;;;;;5028578;28;20056;-65
2021/04/08 01:46:34;;;;;;;6.30;2.80;;;-0.90;79.20;;;;;;5028787;28;20033;-66
2021/04/08 01:49:01;;;;;;;6.03;3.03;;;-0.90;79.40;;;;;;5028813;28;20043;-66
2021/04/08 01:51:29;;;;;;;10.00;2.83;;;-0.90;80.30;;;;;;5027879;28;20025;-66
2021/04/08 01:54:02;;;;;;;6.97;3.42;;;-0.90;80.80;;;;;;5028793;28;20087;-66
2021/04/08 01:56:31;;;;;;;10.23;3.33;;;-0.80;80.80;;;;;;5027475;28;20516;-66
2021/04/08 01:59:00;;;;;;;8.68;4.22;;;-0.80;80.80;;;;;;5028505;28;20482;-66
2021/04/08 02:01:26;;;;;;;7.28;3.90;;;-0.80;80.70;;;;;;5028461;28;20064;-65
2021/04/08 02:03:52;;;;;;;7.95;2.58;;;-0.70;80.30;;;;;;5028602;28;20048;-66
2021/04/08 02:06:22;;;;;;;7.10;3.25;;;-0.70;79.90;;;;;;5027681;28;20029;-66
2021/04/08 02:08:50;;;;;;;5.35;2.40;;;-0.80;80.00;;;;;;5027303;28;20021;-66
2021/04/08 02:11:16;;;;;;;7.78;3.72;;;-0.90;80.20;;;;;;5028571;28;20048;-66
2021/04/08 02:13:45;;;;;;;8.35;3.40;;;-0.90;80.00;;;;;;5027236;28;20040;-66
2021/04/08 02:16:13;;;;;;;6.68;2.85;;;-1.00;80.10;;;;;;5027103;28;20030;-66
2021/04/08 02:18:40;;;;;;;5.95;2.72;;;-1.00;80.00;;;;;;5027683;28;20115;-66
2021/04/08 02:21:07;;;;;;;6.43;3.05;;;-1.10;79.90;;;;;;5027401;28;20018;-66
2021/04/08 02:23:35;;;;;;;9.52;3.47;;;-1.10;79.70;;;;;;5026914;28;20037;-66
2021/04/08 02:26:02;;;;;;;8.10;3.17;;;-1.10;79.60;;;;;;5028142;28;20124;-66
2021/04/08 02:28:28;;;;;;;10.43;2.65;;;-1.10;79.50;;;;;;5027725;28;20029;-66
2021/04/08 02:30:55;;;;;;;8.30;3.13;;;-1.20;79.60;;;;;;5028010;28;20508;-66
2021/04/08 02:33:25;;;;;;;8.93;3.22;;;-1.20;79.50;;;;;;5026675;28;20033;-66
2021/04/08 02:35:52;;;;;;;9.43;4.07;;;-1.10;79.60;;;;;;5027507;28;20124;-65
2021/04/08 02:38:22;;;;;;;9.52;3.72;;;-1.10;79.40;;;;;;5026292;28;20568;-66
2021/04/08 02:40:48;;;;;;;7.15;3.40;;;-1.20;79.30;;;;;;5027436;28;20489;-65
2021/04/08 02:43:13;;;;;;;;;;;-1.20;79.30;;;;;;5010507;28;20494;-67
2021/04/08 02:45:40;;;;;;;6.70;3.13;;;-1.20;79.80;;;;;;5027536;28;19924;-66
2021/04/08 02:48:07;;;;;;;6.43;3.20;;;-1.20;79.60;;;;;;5027843;28;20371;-66
2021/04/08 02:50:33;;;;;;;6.25;3.15;;;-1.20;79.80;;;;;;5027459;28;20037;-66
2021/04/08 02:53:09;;;;;;;;;;;-1.20;79.50;;;;;;5026515;28;20040;-67
2021/04/08 02:55:49;;;;;;;7.53;3.08;;;-1.20;79.90;;;;;;5027690;28;19912;-66
2021/04/08 02:58:17;;;;;;;11.30;4.05;;;-1.30;79.70;;;;;;5027564;28;20333;-67
2021/04/08 03:01:10;;;;;;;9.15;4.18;;;-1.30;80.20;;;;;;5027545;28;20021;-66
2021/04/08 03:03:53;;;;;;;6.78;4.13;;;-1.30;80.20;;;;;;5027392;28;20030;-65
2021/04/08 03:06:20;;;;;;;7.75;4.53;;;-1.40;80.40;;;;;;5026761;28;20018;-66
2021/04/08 03:08:50;;;;;;;9.82;4.97;;;-1.40;80.60;;;;;;5027174;28;20041;-66
2021/04/08 03:11:22;;;;;;;10.60;4.88;;;-1.50;80.80;;;;;;5027267;28;20049;-66
2021/04/08 03:13:50;;;;;;;10.73;6.18;;;-1.40;80.70;;;;;;5027088;28;20029;-66
2021/04/08 03:16:23;;;;;;;13.57;6.18;;;-1.50;81.10;;;;;;5027226;28;20433;-65
2021/04/08 03:18:52;;;;;;;14.65;7.80;;;-1.50;81.20;;;;;;5025276;28;20057;-66
2021/04/08 03:21:21;;;;;;;24.85;8.63;;;-1.60;81.20;;;;;;5026750;28;20021;-66
2021/04/08 03:23:47;;;;;;;23.13;8.88;;;-1.50;81.70;;;;;;5026381;28;20475;-67
2021/04/08 03:26:13;;;;;;;;;;;-1.50;82.10;;;;;;5027041;28;20029;-65
2021/04/08 03:28:40;;;;;;;9.82;5.65;;;-1.50;82.70;;;;;;5026652;28;19909;-66
2021/04/08 03:31:06;;;;;;;10.70;5.85;;;-1.40;82.80;;;;;;5026962;28;20088;-66
2021/04/08 03:33:33;;;;;;;13.20;5.90;;;-1.40;83.10;;;;;;5026428;28;20061;-66
2021/04/08 03:36:00;;;;;;;13.85;7.53;;;-1.30;83.40;;;;;;5026369;28;20357;-66
2021/04/08 03:38:27;;;;;;;14.23;6.38;;;-1.30;83.70;;;;;;5026671;28;20029;-66
2021/04/08 03:40:56;;;;;;;13.55;7.32;;;-1.20;83.70;;;;;;5026856;28;20029;-66
2021/04/08 03:43:22;;;;;;;13.80;7.10;;;-1.30;83.50;;;;;;5026624;28;20413;-66
2021/04/08 03:45:47;;;;;;;;;;;-1.20;83.50;;;;;;5026075;28;20489;-66
2021/04/08 03:48:15;;;;;;;18.40;7.97;;;-1.20;83.50;;;;;;5026596;28;19909;-66
2021/04/08 03:50:42;;;;;;;16.23;7.00;;;-1.20;83.60;;;;;;5025919;28;20603;-67
2021/04/08 03:53:09;;;;;;;19.45;8.20;;;-1.30;83.30;;;;;;5026567;28;20029;-66
2021/04/08 03:55:36;;;;;;;17.00;7.38;;;-1.20;83.60;;;;;;5026365;28;20044;-66
2021/04/08 03:58:06;;;;;;;15.50;7.45;;;-1.30;83.70;;;;;;5026125;28;20060;-66
2021/04/08 04:00:33;;;;;;;23.55;9.25;;;-1.30;83.70;;;;;;5026392;28;20026;-67
2021/04/08 04:02:59;;;;;;;16.20;7.30;;;-1.20;83.70;;;;;;5025967;28;20041;-66
2021/04/08 04:05:26;;;;;;;14.30;6.63;;;-1.30;83.90;;;;;;5025598;28;20801;-66
2021/04/08 04:07:52;;;;;;;13.48;6.90;;;-1.20;84.20;;;;;;5024849;28;20490;-66
2021/04/08 04:10:21;;;;;;;;;;;-1.20;84.30;;;;;;5026776;28;20040;-66
2021/04/08 04:12:51;;;;;;;27.23;11.48;;;-1.20;84.00;;;;;;5025943;28;19913;-66
2021/04/08 04:15:18;;;;;;;24.55;10.63;;;-1.20;83.30;;;;;;5026344;28;20072;-67
2021/04/08 04:17:44;;;;;;;16.67;9.15;;;-1.20;83.10;;;;;;5026134;28;20064;-66
2021/04/08 04:20:10;;;;;;;;;;;-1.30;82.70;;;;;;5024645;28;20053;-66
2021/04/08 04:22:38;;;;;;;18.45;8.20;;;-1.30;82.80;;;;;;5025805;28;20365;-67
2021/04/08 04:25:06;;;;;;;19.50;9.40;;;-1.30;82.70;;;;;;5026298;28;20029;-67
2021/04/08 04:27:32;;;;;;;18.63;8.68;;;-1.30;82.40;;;;;;5024958;28;20437;-66
2021/04/08 04:29:58;;;;;;;18.45;7.93;;;-1.30;82.40;;;;;;5026173;28;20026;-66
2021/04/08 04:32:23;;;;;;;;;;;-1.30;82.30;;;;;;5025209;28;20055;-66
2021/04/08 04:34:49;;;;;;;14.00;6.75;;;-1.20;82.20;;;;;;5025769;28;20007;-65
2021/04/08 04:37:14;;;;;;;;;;;-1.00;82.00;;;;;;5029673;28;20026;-65
2021/04/08 04:39:40;;;;;;;23.60;9.07;;;-0.90;81.80;;;;;;5029480;28;19913;-66
2021/04/08 04:42:06;;;;;;;;;;;-0.70;81.40;;;;;;5030311;28;20033;-67
2021/04/08 04:44:32;;;;;;;24.40;10.02;;;-0.40;80.50;;;;;;5028490;28;19967;-66
2021/04/08 04:46:57;;;;;;;;;;;0.10;79.20;;;;;;5030145;28;20037;-65
2021/04/08 04:49:24;;;;;;;24.50;10.10;;;0.70;76.90;;;;;;5029188;28;19909;-66
2021/04/08 04:51:51;;;;;;;25.60;11.85;;;1.40;74.10;;;;;;5029694;28;20064;-67
2021/04/08 04:54:16;;;;;;;13.27;7.22;;;2.30;71.70;;;;;;5028502;28;20041;-66
2021/04/08 04:56:42;;;;;;;;;;;3.30;67.10;;;;;;5030017;28;20064;-66
2021/04/08 04:59:08;;;;;;;25.02;10.55;;;3.90;63.20;;;;;;5029630;28;19983;-68
2021/04/08 05:01:34;;;;;;;17.77;8.23;;;4.10;62.30;;;;;;5029632;28;20059;-69
2021/04/08 05:03:59;;;;;;;20.65;8.55;;;4.00;62.10;;;;;;5027327;28;20029;-69
2021/04/08 05:06:25;;;;;;;;;;;3.80;63.00;;;;;;5029862;28;20078;-69
2021/04/08 05:08:51;;;;;;;18.42;7.00;;;3.60;63.80;;;;;;5029683;28;19916;-68
2021/04/08 05:11:16;;;;;;;13.18;7.10;;;3.60;64.80;;;;;;5029239;28;20029;-68
2021/04/08 05:13:42;;;;;;;;;;;3.60;65.00;;;;;;5029918;28;20130;-68
2021/04/08 05:16:08;;;;;;;10.38;4.72;;;3.70;65.10;;;;;;5029135;28;19967;-68
2021/04/08 05:18:33;;;;;;;;;;;3.70;65.30;;;;;;5029382;28;20088;-68
2021/04/08 05:20:59;;;;;;;8.30;5.07;;;3.70;66.20;;;;;;5029018;28;19912;-69
2021/04/08 05:23:25;;;;;;;8.68;5.30;;;3.50;66.30;;;;;;5028656;28;20026;-68
2021/04/08 05:25:51;;;;;;;;;;;3.30;67.00;;;;;;5029624;28;20512;-68
2021/04/08 05:28:17;;;;;;;7.63;4.88;;;3.00;68.20;;;;;;5029241;28;19909;-68
2021/04/08 05:30:42;;;;;;;;;;;2.80;69.70;;;;;;5029673;28;20641;-68
2021/04/08 05:33:08;;;;;;;9.43;5.50;;;2.60;70.50;;;;;;5028949;28;19915;-68
2021/04/08 05:35:34;;;;;;;14.95;6.38;;;2.60;71.00;;;;;;5028231;28;20375;-68
2021/04/08 05:37:59;;;;;;;;;;;2.60;71.40;;;;;;5029384;28;20045;-68
2021/04/08 05:40:25;;;;;;;9.25;5.18;;;2.60;71.20;;;;;;5028462;28;20761;-68
2021/04/08 05:42:50;;;;;;;;;;;2.70;71.30;;;;;;5029483;28;20233;-68
2021/04/08 05:45:18;;;;;;;10.23;5.68;;;2.70;71.30;;;;;;5028580;28;19909;-68
2021/04/08 05:47:44;;;;;;;8.70;4.53;;;2.80;71.20;;;;;;5027917;28;20033;-68
2021/04/08 05:50:10;;;;;;;;;;;2.80;71.10;;;;;;5027192;28;20512;-68
2021/04/08 05:52:36;;;;;;;5.82;4.40;;;2.90;70.80;;;;;;5028659;28;20023;-69
2021/04/08 05:55:02;;;;;;;8.32;4.88;;;3.00;70.50;;;;;;5028735;28;20148;-69
2021/04/08 05:57:28;;;;;;;;;;;3.10;70.10;;;;;;5029079;28;20514;-68
2021/04/08 05:59:54;;;;;;;11.45;5.45;;;3.10;69.90;;;;;;5028365;28;20565;-68
2021/04/08 06:02:19;;;;;;;;;;;3.10;70.20;;;;;;5029153;28;20025;-67
2021/04/08 06:04:45;;;;;;;8.98;5.15;;;3.10;69.90;;;;;;5028318;28;19909;-69
2021/04/08 06:07:10;;;;;;;;;;;3.20;69.90;;;;;;5027445;28;20549;-68
2021/04/08 06:09:36;;;;;;;9.23;5.78;;;3.30;69.60;;;;;;5028476;28;20329;-66
2021/04/08 06:12:02;;;;;;;;;;;3.50;69.10;;;;;;5028982;28;20055;-66
2021/04/08 06:14:28;;;;;;;9.85;5.10;;;3.50;69.20;;;;;;5027962;28;20324;-67
2021/04/08 06:16:55;;;;;;;;;;;3.50;68.40;;;;;;5028773;28;20029;-67
2021/04/08 06:19:20;;;;;;;9.30;4.72;;;3.50;68.70;;;;;;5027723;28;19921;-67
2021/04/08 06:21:46;;;;;;;7.28;4.38;;;3.40;68.70;;;;;;5027706;28;20178;-66
2021/04/08 06:24:12;;;;;;;6.82;4.68;;;3.30;69.60;;;;;;5027840;28;20044;-66
2021/04/08 06:26:37;;;;;;;;;;;3.20;70.50;;;;;;5028273;28;20049;-66
2021/04/08 06:29:03;;;;;;;9.20;3.95;;;3.10;71.00;;;;;;5028248;28;19952;-66
2021/04/08 06:31:29;;;;;;;9.75;4.43;;;3.10;71.60;;;;;;5028121;28;20026;-66
2021/04/08 06:33:55;;;;;;;;;;;3.10;72.40;;;;;;5027598;28;20077;-67
2021/04/08 06:36:21;;;;;;;11.93;5.32;;;3.00;72.60;;;;;;5026629;28;19924;-66
2021/04/08 06:38:49;;;;;;;12.65;5.82;;;3.00;72.60;;;;;;5028471;28;20051;-67
2021/04/08 06:41:17;;;;;;;5.93;4.35;;;3.00;73.00;;;;;;5027863;28;20014;-66
2021/04/08 06:43:45;;;;;;;8.73;4.85;;;2.90;74.00;;;;;;5027796;28;20057;-66
2021/04/08 06:46:21;;;;;;;12.32;4.97;;;2.90;74.60;;;;;;5027987;28;20540;-66
2021/04/08 06:48:49;;;;;;;8.00;4.60;;;2.90;75.30;;;;;;5027629;28;20034;-66
2021/04/08 06:51:19;;;;;;;8.23;5.03;;;2.90;76.40;;;;;;5027877;28;20025;-66
2021/04/08 06:53:47;;;;;;;7.15;4.13;;;2.90;77.40;;;;;;5027588;28;20029;-66
2021/04/08 06:56:13;;;;;;;9.10;4.85;;;2.90;77.60;;;;;;5027401;28;20049;-66
2021/04/08 06:58:39;;;;;;;;;;;2.80;78.10;;;;;;5027576;28;20088;-67
2021/04/08 07:01:11;;;;;;;7.25;5.15;;;2.90;78.70;;;;;;5026390;28;19956;-66
2021/04/08 07:03:40;;;;;;;9.98;5.40;;;2.90;79.30;;;;;;5026669;28;20140;-66
2021/04/08 07:06:06;;;;;;;12.73;6.00;;;2.80;79.90;;;;;;5027429;28;20029;-65
2021/04/08 07:08:32;;;;;;;;;;;2.80;80.20;;;;;;5026437;28;20394;-66
2021/04/08 07:10:59;;;;;;;11.98;5.63;;;2.80;80.80;;;;;;5027180;28;19905;-67
2021/04/08 07:13:30;;;;;;;8.40;5.43;;;2.70;80.80;;;;;;5027410;28;20505;-65
2021/04/08 07:15:56;;;;;;;9.98;5.45;;;2.70;81.70;;;;;;5027223;28;20034;-66
2021/04/08 07:18:27;;;;;;;8.02;4.93;;;2.80;81.20;;;;;;5026524;28;20053;-66
2021/04/08 07:20:55;;;;;;;8.98;6.03;;;2.80;81.30;;;;;;5027198;28;20049;-65
2021/04/08 07:23:21;;;;;;;7.00;4.63;;;2.80;81.70;;;;;;5027256;28;20061;-67
2021/04/08 07:26:00;;;;;;;7.55;4.85;;;2.80;82.10;;;;;;5025812;28;20490;-66
2021/04/08 07:28:33;;;;;;;11.18;5.50;;;2.80;83.10;;;;;;5026951;28;20029;-66
2021/04/08 07:31:19;;;;;;;7.38;5.35;;;2.80;83.90;;;;;;5026737;28;20108;-67
2021/04/08 07:33:45;;;;;;;8.75;5.38;;;2.90;84.50;;;;;;5025894;28;20088;-66
2021/04/08 07:36:10;;;;;;;;;;;2.80;84.90;;;;;;5025584;28;20058;-65
2021/04/08 07:38:49;;;;;;;7.57;5.22;;;2.80;85.40;;;;;;5026746;28;19924;-66
2021/04/08 07:41:28;;;;;;;7.43;4.97;;;2.80;86.00;;;;;;5026708;28;20032;-66
2021/04/08 07:44:08;;;;;;;7.32;5.55;;;2.80;86.80;;;;;;5024954;28;20400;-66
2021/04/08 07:46:43;;;;;;;5.88;4.35;;;2.80;87.40;;;;;;5026351;28;20018;-66
2021/04/08 07:49:24;;;;;;;6.72;4.80;;;2.90;87.80;;;;;;5026038;28;20432;-66
2021/04/08 07:51:50;;;;;;;6.65;4.68;;;3.10;87.70;;;;;;5026123;28;20029;-65
2021/04/08 07:54:17;;;;;;;;;;;3.40;87.80;;;;;;5025083;28;20116;-66
2021/04/08 07:56:43;;;;;;;6.20;3.92;;;3.80;87.70;;;;;;5026436;28;19964;-65
2021/04/08 07:59:15;;;;;;;4.28;2.63;;;4.60;86.70;;;;;;5025816;28;20450;-66
2021/04/08 08:01:44;;;;;;;3.97;2.58;;;5.60;83.20;;;;;;5025990;28;20133;-66
2021/04/08 08:04:24;;;;;;;3.22;2.28;;;6.60;80.10;;;;;;5024620;28;20033;-67
2021/04/08 08:06:51;;;;;;;3.17;2.15;;;7.50;75.00;;;;;;5026044;28;20036;-67
2021/04/08 08:09:24;;;;;;;4.68;2.40;;;7.60;73.00;;;;;;5026120;28;20022;-67
2021/04/08 08:11:51;;;;;;;3.10;2.00;;;7.50;71.60;;;;;;5024175;28;20092;-67
2021/04/08 08:14:34;;;;;;;4.30;2.40;;;7.40;69.50;;;;;;5026273;28;20108;-66
2021/04/08 08:17:07;;;;;;;2.97;2.08;;;7.20;69.30;;;;;;5024152;28;20039;-65
2021/04/08 08:19:34;;;;;;;3.95;2.33;;;7.30;68.40;;;;;;5025919;28;20061;-66
2021/04/08 08:22:00;;;;;;;5.45;2.58;;;7.20;70.10;;;;;;5024471;28;20022;-66
2021/04/08 08:24:26;;;;;;;4.30;2.22;;;7.00;68.40;;;;;;5025959;28;20022;-66
2021/04/08 08:26:52;;;;;;;;;;;7.10;68.20;;;;;;5026676;28;20048;-66
2021/04/08 08:29:25;;;;;;;3.17;1.90;;;7.10;68.90;;;;;;5025624;28;19909;-66
2021/04/08 08:31:58;;;;;;;3.30;2.45;;;7.20;67.70;;;;;;5023938;28;20255;-66
2021/04/08 08:34:32;;;;;;;4.72;2.00;;;7.30;67.60;;;;;;5026103;28;20022;-67
2021/04/08 08:37:00;;;;;;;2.85;1.90;;;7.50;65.60;;;;;;5025768;28;20104;-67
2021/04/08 08:39:31;;;;;;;2.78;1.90;;;7.70;63.90;;;;;;5025980;28;20042;-66
2021/04/08 08:41:58;;;;;;;3.63;1.80;;;8.00;64.00;;;;;;5025780;28;20055;-67
2021/04/08 08:44:25;;;;;;;2.22;1.30;;;8.70;61.80;;;;;;5025784;28;20108;-66
2021/04/08 08:47:11;;;;;;;2.63;1.60;;;9.30;57.70;;;;;;5025642;28;20018;-66
2021/04/08 08:49:42;;;;;;;3.90;1.98;;;9.30;56.10;;;;;;5025735;28;20048;-66
2021/04/08 08:52:10;;;;;;;2.05;1.42;;;9.30;56.60;;;;;;5025707;28;20521;-67
2021/04/08 08:54:36;;;;;;;3.15;1.52;;;9.30;56.00;;;;;;5025864;28;20021;-67
2021/04/08 08:57:05;;;;;;;1.90;1.38;;;9.50;56.00;;;;;;5025665;28;20516;-67
2021/04/08 08:59:32;;;;;;;4.05;1.52;;;10.00;54.70;;;;;;5025751;28;20045;-67
2021/04/08 09:01:58;;;;;;;3.63;1.75;;;10.70;54.20;;;;;;5024981;28;20034;-67
2021/04/08 09:04:24;;;;;;;3.40;1.67;;;11.60;49.50;;;;;;5025898;28;20061;-67
2021/04/08 09:06:52;;;;;;;3.03;1.20;;;11.70;46.90;;;;;;5025825;28;20022;-67
2021/04/08 09:09:21;;;;;;;3.72;1.25;;;12.00;46.70;;;;;;5025756;28;20261;-67
2021/04/08 09:11:48;;;;;;;2.47;1.35;;;11.80;46.60;;;;;;5023885;28;20430;-67
2021/04/08 09:14:14;;;;;;;2.08;1.30;;;11.40;47.50;;;;;;5023996;28;20040;-65
2021/04/08 09:16:46;;;;;;;;;;;11.50;47.10;;;;;;5025745;28;20433;-67
2021/04/08 09:19:13;;;;;;;2.67;1.08;;;11.80;46.10;;;;;;5024889;28;19961;-67
2021/04/08 09:21:48;;;;;;;2.03;1.02;;;12.20;44.60;;;;;;5025343;28;20036;-67
2021/04/08 09:24:31;;;;;;;2.83;1.10;;;11.90;42.90;;;;;;5028767;28;20497;-67
2021/04/08 09:26:58;;;;;;;4.32;1.75;;;11.90;44.10;;;;;;5028844;28;20060;-66
2021/04/08 09:29:37;;;;;;;2.88;1.38;;;11.90;43.60;;;;;;5029324;28;20021;-67
2021/04/08 09:32:26;;;;;;;2.08;1.00;;;11.90;43.00;;;;;;5028694;28;20375;-67
2021/04/08 09:35:09;;;;;;;2.60;1.23;;;11.90;43.50;;;;;;5029091;28;20044;-67
2021/04/08 09:37:44;;;;;;;2.60;0.75;;;12.20;42.10;;;;;;5028817;28;20072;-67
2021/04/08 09:40:28;;;;;;;2.30;0.90;;;12.30;42.10;;;;;;5027802;28;20536;-67
2021/04/08 09:43:02;;;;;;;1.90;0.88;;;12.20;41.40;;;;;;5028741;28;20029;-67
2021/04/08 09:45:29;;;;;;;1.55;0.88;;;11.60;41.20;;;;;;5027182;28;20029;-67
2021/04/08 09:48:19;;;;;;;2.35;0.90;;;11.40;41.90;;;;;;5027921;28;20490;-66
2021/04/08 09:50:54;;;;;;;4.20;1.20;;;11.10;43.90;;;;;;5028546;28;20025;-67
2021/04/08 09:53:23;;;;;;;4.20;1.50;;;11.40;44.70;;;;;;5028412;28;20036;-67
2021/04/08 09:56:00;;;;;;;2.03;1.23;;;11.80;42.20;;;;;;5028243;28;20155;-68
2021/04/08 09:58:32;;;;;;;1.42;1.00;;;11.40;42.60;;;;;;5028547;28;20486;-66
2021/04/08 10:01:07;;;;;;;2.60;0.90;;;11.00;42.30;;;;;;5028257;28;20036;-67
2021/04/08 10:03:40;;;;;;;2.45;0.80;;;10.70;42.20;;;;;;5026766;28;20532;-68
2021/04/08 10:06:16;;;;;;;1.48;0.93;;;10.30;43.90;;;;;;5028511;28;20071;-67
2021/04/08 10:08:42;;;;;;;2.03;0.80;;;10.30;45.70;;;;;;5028390;28;20108;-67
2021/04/08 10:11:08;;;;;;;;;;;10.70;44.60;;;;;;5028474;28;20131;-67
2021/04/08 10:13:35;;;;;;;2.35;0.85;;;11.40;41.40;;;;;;5027140;28;20372;-67
2021/04/08 10:16:10;;;;;;;2.28;1.02;;;11.40;40.70;;;;;;5027663;28;20040;-66
2021/04/08 10:18:36;;;;;;;3.25;0.77;;;11.20;40.70;;;;;;5028024;28;20087;-67
2021/04/08 10:21:05;;;;;;;2.60;0.90;;;10.80;42.30;;;;;;5027824;28;20036;-66
2021/04/08 10:23:39;;;;;;;1.75;0.82;;;10.50;42.50;;;;;;5028320;28;20125;-67
2021/04/08 10:26:10;;;;;;;1.17;0.68;;;10.10;43.40;;;;;;5027870;28;20025;-67
2021/04/08 10:28:42;;;;;;;2.60;1.00;;;10.10;43.60;;;;;;5028200;28;20468;-67
2021/04/08 10:31:19;;;;;;;2.65;1.10;;;10.10;43.40;;;;;;5026267;28;20494;-67
2021/04/08 10:33:47;;;;;;;4.35;1.10;;;10.20;43.50;;;;;;5027417;28;20048;-68
2021/04/08 10:36:29;;;;;;;4.22;1.25;;;10.50;42.90;;;;;;5028202;28;20029;-67
2021/04/08 10:39:14;;;;;;;2.33;0.98;;;10.70;42.30;;;;;;5027700;28;20211;-67
2021/04/08 10:41:57;;;;;;;3.05;0.65;;;10.80;42.70;;;;;;5026154;28;20026;-67
2021/04/08 10:44:29;;;;;;;1.63;0.70;;;10.70;40.70;;;;;;5026352;28;20033;-67
2021/04/08 10:46:56;;;;;;;2.20;0.80;;;10.80;40.70;;;;;;5026389;28;20051;-67
2021/04/08 10:49:32;;;;;;;1.55;0.70;;;10.80;40.10;;;;;;5027453;28;20029;-66
2021/04/08 10:52:06;;;;;;;1.83;1.17;;;10.90;39.50;;;;;;5027767;28;20033;-67
2021/04/08 10:54:35;;;;;;;2.55;1.52;;;10.80;40.40;;;;;;5027253;28;20029;-67
2021/04/08 10:57:02;;;;;;;2.80;1.27;;;10.90;39.90;;;;;;5025816;28;20260;-67
2021/04/08 10:59:29;;;;;;;3.67;0.85;;;10.80;40.20;;;;;;5026092;28;20144;-67
2021/04/08 11:01:58;;;;;;;2.20;0.93;;;10.90;39.10;;;;;;5027336;28;20103;-66
2021/04/08 11:04:23;;;;;;;1.55;0.90;;;10.80;41.00;;;;;;5026266;28;20029;-67
2021/04/08 11:06:50;;;;;;;;;;;10.80;41.00;;;;;;5027633;28;20033;-67
2021/04/08 11:09:26;;;;;;;1.77;0.57;;;10.80;38.30;;;;;;5026953;28;20293;-67
2021/04/08 11:11:52;;;;;;;1.45;1.00;;;10.70;38.10;;;;;;5027398;28;20037;-67
2021/04/08 11:14:30;;;;;;;5.75;2.15;;;10.60;37.40;;;;;;5027275;28;20025;-67
2021/04/08 11:16:57;;;;;;;1.83;0.65;;;10.60;38.00;;;;;;5026934;28;20100;-67
2021/04/08 11:19:24;;;;;;;2.35;0.70;;;10.70;37.50;;;;;;5025507;28;20071;-67
2021/04/08 11:21:50;;;;;;;1.45;0.50;;;10.90;36.20;;;;;;5025373;28;20021;-67
2021/04/08 11:24:17;;;;;;;2.30;0.88;;;10.60;37.00;;;;;;5027298;28;20040;-67
2021/04/08 11:26:51;;;;;;;2.15;0.90;;;10.20;41.10;;;;;;5025683;28;20064;-67
2021/04/08 11:29:24;;;;;;;2.67;1.17;;;10.20;42.30;;;;;;5027244;28;20112;-67
2021/04/08 11:32:08;;;;;;;2.65;1.10;;;10.10;43.10;;;;;;5026183;28;20121;-67
2021/04/08 11:34:50;;;;;;;3.72;1.00;;;9.90;44.70;;;;;;5026993;28;20424;-67
2021/04/08 11:37:17;;;;;;;1.88;0.90;;;9.80;45.50;;;;;;5026472;28;20036;-67
2021/04/08 11:39:45;;;;;;;3.90;0.90;;;9.90;45.10;;;;;;5024883;28;20041;-67
2021/04/08 11:42:20;;;;;;;1.38;0.60;;;10.00;44.90;;;;;;5026797;28;20425;-67
2021/04/08 11:44:47;;;;;;;2.15;0.75;;;10.00;42.70;;;;;;5025934;28;20033;-67
2021/04/08 11:47:15;;;;;;;2.70;0.80;;;10.10;42.20;;;;;;5026313;28;20021;-67
2021/04/08 11:49:51;;;;;;;2.47;0.70;;;10.30;41.40;;;;;;5026309;28;20061;-67
2021/04/08 11:52:21;;;;;;;2.25;0.55;;;10.40;40.50;;;;;;5026777;28;20030;-66
2021/04/08 11:55:11;;;;;;;4.03;1.33;;;10.60;39.80;;;;;;5025882;28;20052;-67
2021/04/08 11:57:36;;;;;;;2.20;0.80;;;10.90;37.70;;;;;;5026304;28;20067;-67
2021/04/08 12:00:05;;;;;;;;;;;11.20;37.10;;;;;;5025005;28;20076;-67
2021/04/08 12:02:34;;;;;;;2.22;1.00;;;11.50;35.20;;;;;;5026673;28;19995;-66
2021/04/08 12:05:00;;;;;;;3.22;0.75;;;11.60;36.20;;;;;;5026585;28;20052;-67
2021/04/08 12:07:27;;;;;;;1.15;0.50;;;11.70;34.90;;;;;;5026345;28;20021;-67
2021/04/08 12:09:53;;;;;;;2.00;0.70;;;11.90;34.10;;;;;;5026327;28;20056;-68
2021/04/08 12:12:28;;;;;;;;;;;11.80;32.40;;;;;;5025471;28;20353;-67
2021/04/08 12:15:03;;;;;;;2.88;0.95;;;11.50;33.50;;;;;;5025646;28;20325;-67
2021/04/08 12:17:30;;;;;;;2.45;0.90;;;11.00;35.60;;;;;;5025721;28;20021;-68
2021/04/08 12:20:21;;;;;;;4.13;1.73;;;10.50;40.30;;;;;;5026129;28;20075;-67
2021/04/08 12:22:47;;;;;;;7.85;3.72;;;9.80;45.10;;;;;;5026326;28;20402;-67
2021/04/08 12:25:17;;;;;;;41.05;17.10;;;8.80;48.60;;;;;;5025938;28;20026;-66
2021/04/08 12:27:43;;;;;;;3.42;1.30;;;8.40;51.20;;;;;;5025624;28;20029;-67
2021/04/08 12:30:11;;;;;;;8.18;2.17;;;7.90;52.00;;;;;;5025815;28;20033;-67
2021/04/08 12:32:37;;;;;;;11.30;5.28;;;7.50;56.30;;;;;;5024670;28;20444;-66
2021/04/08 12:35:03;;;;;;;;;;;7.10;60.30;;;;;;5026184;28;20049;-67
2021/04/08 12:37:28;;;;;;;27.67;12.80;;;6.90;59.70;;;;;;5024674;28;20438;-66
2021/04/08 12:39:54;;;;;;;;;;;6.80;60.00;;;;;;5025562;28;20037;-66
2021/04/08 12:42:20;;;;;;;15.18;6.28;;;7.10;62.90;;;;;;5026092;28;20003;-66
2021/04/08 12:44:47;;;;;;;5.95;2.80;;;7.50;65.00;;;;;;5025312;28;20025;-67
2021/04/08 12:47:13;;;;;;;;;;;8.20;59.80;;;;;;5026313;28;20044;-67
2021/04/08 12:49:39;;;;;;;8.75;4.05;;;8.50;60.10;;;;;;5025066;28;19909;-67
2021/04/08 12:52:04;;;;;;;;;;;8.80;59.70;;;;;;5024652;28;20021;-66
2021/04/08 12:54:34;;;;;;;5.38;1.52;;;8.80;57.50;;;;;;5025154;28;19919;-66
2021/04/08 12:57:00;;;;;;;2.88;0.80;;;8.80;58.80;;;;;;5026490;28;20108;-66
2021/04/08 12:59:26;;;;;;;;;;;8.70;55.70;;;;;;5028194;28;20132;-67
2021/04/08 13:01:52;;;;;;;3.45;1.50;;;8.40;56.30;;;;;;5029566;28;19944;-67
2021/04/08 13:04:17;;;;;;;;;;;8.10;58.10;;;;;;5030368;28;20155;-67
2021/04/08 13:06:43;;;;;;;6.85;4.70;;;8.10;56.80;;;;;;5029251;28;20558;-66
2021/04/08 13:09:09;;;;;;;;;;;8.10;56.50;;;;;;5029739;28;20486;-66
2021/04/08 13:11:40;;;;;;;8.48;1.95;;;7.80;54.40;;;;;;5028591;28;19925;-65
2021/04/08 13:14:06;;;;;;;2.80;1.02;;;7.80;54.70;;;;;;5027444;28;20563;-66
2021/04/08 13:16:33;;;;;;;3.95;0.80;;;7.60;53.30;;;;;;5027614;28;20124;-67